createdAt,value
2019-05-19T00:01:03.894Z,12.52
2019-05-19T00:03:34.408Z,12.55
2019-05-19T00:06:04.996Z,12.57
2019-05-19T00:08:35.489Z,12.50
2019-05-19T00:11:06.004Z,12.50
2019-05-19T00:13:36.548Z,12.48
2019-05-19T00:16:07.079Z,12.49
2019-05-19T00:18:37.619Z,12.49
2019-05-19T00:21:08.099Z,12.39
2019-05-19T00:23:38.721Z,12.40
2019-05-19T00:26:09.246Z,12.37
2019-05-19T00:28:39.645Z,12.39
2019-05-19T00:31:10.163Z,12.38
2019-05-19T00:33:40.591Z,12.45
2019-05-19T00:36:11.093Z,12.41
2019-05-19T00:38:41.612Z,12.48
2019-05-19T00:41:12.115Z,12.49
2019-05-19T00:43:42.651Z,12.51
2019-05-19T00:46:13.190Z,12.38
2019-05-19T00:48:43.689Z,12.33
2019-05-19T00:51:14.485Z,12.26
2019-05-19T00:53:45.009Z,12.30
2019-05-19T00:56:15.584Z,12.36
2019-05-19T00:58:46.656Z,12.19
2019-05-19T01:01:17.225Z,12.24
2019-05-19T01:03:47.786Z,12.23
2019-05-19T01:06:18.419Z,12.23
2019-05-19T01:08:49.076Z,12.29
2019-05-19T01:11:19.548Z,12.30
2019-05-19T01:13:50.170Z,12.34
2019-05-19T01:16:21.017Z,12.11
2019-05-19T01:18:51.496Z,12.09
2019-05-19T01:21:22.283Z,12.20
2019-05-19T01:23:52.822Z,12.16
2019-05-19T01:26:23.348Z,12.04
2019-05-19T01:28:53.967Z,12.13
2019-05-19T01:31:24.575Z,11.98
2019-05-19T01:33:55.109Z,12.11
2019-05-19T01:36:25.627Z,12.00
2019-05-19T01:38:56.158Z,12.05
2019-05-19T01:41:26.681Z,12.10
2019-05-19T01:43:57.308Z,12.10
2019-05-19T01:46:28.010Z,12.04
2019-05-19T01:48:58.514Z,12.08
2019-05-19T01:51:29.021Z,12.02
2019-05-19T01:53:59.586Z,12.00
2019-05-19T01:56:30.118Z,11.89
2019-05-19T01:59:00.702Z,11.89
2019-05-19T02:01:32.220Z,11.74
2019-05-19T02:04:02.695Z,11.80
2019-05-19T02:06:33.091Z,11.73
2019-05-19T02:09:04.734Z,11.79
2019-05-19T02:11:36.455Z,11.70
2019-05-19T02:14:06.956Z,11.72
2019-05-19T02:16:37.494Z,11.68
2019-05-19T02:19:08.054Z,11.62
2019-05-19T02:21:38.525Z,11.72
2019-05-19T02:24:09.023Z,11.65
2019-05-19T02:26:39.514Z,11.58
2019-05-19T02:29:09.995Z,11.60
2019-05-19T02:31:40.539Z,11.57
2019-05-19T02:34:11.015Z,11.64
2019-05-19T02:36:41.430Z,11.60
2019-05-19T02:39:11.983Z,11.55
2019-05-19T02:41:46.883Z,11.57
2019-05-19T02:44:20.239Z,11.53
2019-05-19T02:46:54.082Z,11.49
2019-05-19T02:49:27.010Z,11.54
2019-05-19T02:51:59.512Z,11.50
2019-05-19T02:54:30.577Z,11.56
2019-05-19T02:57:01.918Z,11.54
2019-05-19T02:59:34.470Z,11.39
2019-05-19T03:02:08.350Z,11.46
2019-05-19T03:04:38.859Z,11.49
2019-05-19T03:07:09.465Z,11.55
2019-05-19T03:09:40.006Z,11.56
2019-05-19T03:12:10.546Z,11.62
2019-05-19T03:14:41.103Z,11.53
2019-05-19T03:17:11.676Z,11.55
2019-05-19T03:19:42.262Z,11.61
2019-05-19T03:22:12.805Z,11.64
2019-05-19T03:24:43.410Z,11.54
2019-05-19T03:27:13.806Z,11.63
2019-05-19T03:29:48.928Z,11.49
2019-05-19T03:32:39.740Z,11.49
2019-05-19T03:35:10.558Z,11.50
2019-05-19T03:37:41.099Z,11.71
2019-05-19T03:40:20.734Z,11.49
2019-05-19T03:42:52.634Z,11.69
2019-05-19T03:45:23.143Z,11.65
2019-05-19T03:47:53.689Z,11.63
2019-05-19T03:50:24.178Z,11.53
2019-05-19T03:52:54.677Z,11.55
2019-05-19T03:55:25.179Z,11.52
2019-05-19T03:57:55.708Z,11.60
2019-05-19T04:00:28.212Z,11.59
2019-05-19T04:02:58.787Z,11.68
2019-05-19T04:05:29.233Z,11.60
2019-05-19T04:07:59.789Z,11.62
2019-05-19T04:10:30.300Z,11.56
2019-05-19T04:13:00.819Z,11.59
2019-05-19T04:15:31.294Z,11.54
2019-05-19T04:18:01.867Z,11.58
2019-05-19T04:20:32.339Z,11.70
2019-05-19T04:23:02.799Z,11.63
2019-05-19T04:25:33.363Z,11.75
2019-05-19T04:28:03.849Z,11.79
2019-05-19T04:30:34.371Z,11.77
2019-05-19T04:33:04.910Z,11.95
2019-05-19T04:35:35.401Z,11.98
2019-05-19T04:38:05.881Z,11.88
2019-05-19T04:40:36.422Z,11.93
2019-05-19T04:43:06.911Z,11.95
2019-05-19T04:45:37.431Z,11.90
2019-05-19T04:48:09.699Z,11.92
2019-05-19T04:50:40.192Z,11.90
2019-05-19T04:53:10.708Z,11.84
2019-05-19T04:55:41.266Z,11.79
2019-05-19T04:58:11.737Z,11.88
2019-05-19T05:00:42.267Z,11.89
2019-05-19T05:03:12.818Z,11.80
2019-05-19T05:05:43.317Z,11.91
2019-05-19T05:08:28.864Z,12.10
2019-05-19T05:10:46.179Z,12.30
2019-05-19T05:13:16.701Z,12.37
2019-05-19T05:15:47.220Z,12.27
2019-05-19T05:18:17.723Z,12.40
2019-05-19T05:20:48.229Z,12.38
2019-05-19T05:23:18.759Z,12.36
2019-05-19T05:25:49.268Z,12.55
2019-05-19T05:28:19.765Z,12.49
2019-05-19T05:30:50.323Z,12.52
2019-05-19T05:33:20.900Z,12.56
2019-05-19T05:35:51.413Z,12.53
2019-05-19T05:38:21.945Z,12.52
2019-05-19T05:40:52.454Z,12.52
2019-05-19T05:43:22.971Z,12.77
2019-05-19T05:45:53.437Z,12.64
2019-05-19T05:48:23.950Z,12.64
2019-05-19T05:50:54.442Z,12.64
2019-05-19T05:53:24.968Z,12.63
2019-05-19T05:55:55.478Z,12.62
2019-05-19T05:58:25.975Z,12.48
2019-05-19T06:00:56.520Z,12.52
2019-05-19T06:03:27.014Z,12.59
2019-05-19T06:05:57.523Z,12.68
2019-05-19T06:08:28.121Z,12.85
2019-05-19T06:10:58.708Z,12.91
2019-05-19T06:13:29.681Z,12.89
2019-05-19T06:16:00.236Z,12.95
2019-05-19T06:18:30.770Z,12.89
2019-05-19T06:21:01.341Z,13.08
2019-05-19T06:23:31.911Z,13.12
2019-05-19T06:26:02.463Z,12.93
2019-05-19T06:28:32.968Z,13.05
2019-05-19T06:31:03.494Z,13.06
2019-05-19T06:33:34.241Z,12.95
2019-05-19T06:36:04.934Z,12.83
2019-05-19T06:38:35.597Z,13.19
2019-05-19T06:41:06.087Z,13.16
2019-05-19T06:43:36.587Z,13.26
2019-05-19T06:46:07.310Z,13.14
2019-05-19T06:48:37.811Z,12.99
2019-05-19T06:51:08.550Z,13.14
2019-05-19T06:53:39.080Z,13.12
2019-05-19T06:56:09.600Z,13.11
2019-05-19T06:58:40.104Z,13.20
2019-05-19T07:01:10.715Z,13.32
2019-05-19T07:03:41.458Z,13.24
2019-05-19T07:06:11.951Z,13.20
2019-05-19T07:08:42.529Z,13.05
2019-05-19T07:11:13.007Z,13.19
2019-05-19T07:13:43.485Z,13.26
2019-05-19T07:16:14.011Z,13.36
2019-05-19T07:18:44.471Z,13.67
2019-05-19T07:21:14.963Z,13.71
2019-05-19T07:23:45.482Z,13.60
2019-05-19T07:26:15.941Z,13.61
2019-05-19T07:28:46.485Z,13.62
2019-05-19T07:31:17.152Z,13.65
2019-05-19T07:33:47.676Z,13.59
2019-05-19T07:36:18.201Z,13.60
2019-05-19T07:38:48.690Z,13.63
2019-05-19T07:41:19.218Z,13.59
2019-05-19T07:43:49.777Z,13.80
2019-05-19T07:46:20.462Z,13.93
2019-05-19T07:48:51.047Z,13.83
2019-05-19T07:51:21.552Z,13.98
2019-05-19T07:53:52.425Z,13.98
2019-05-19T07:56:23.586Z,14.06
2019-05-19T07:58:54.128Z,14.00
2019-05-19T08:01:24.713Z,13.89
2019-05-19T08:03:55.276Z,14.04
2019-05-19T08:06:25.819Z,14.13
2019-05-19T08:08:56.344Z,14.30
2019-05-19T08:11:26.920Z,14.45
2019-05-19T08:13:57.488Z,14.69
2019-05-19T08:16:28.054Z,14.79
2019-05-19T08:18:58.638Z,15.11
2019-05-19T08:21:29.202Z,14.98
2019-05-19T08:24:01.179Z,14.97
2019-05-19T08:26:31.998Z,15.01
2019-05-19T08:29:02.582Z,14.87
2019-05-19T08:31:33.307Z,14.91
2019-05-19T08:34:03.997Z,14.99
2019-05-19T08:36:34.636Z,15.18
2019-05-19T08:39:07.001Z,15.26
2019-05-19T08:41:37.769Z,15.50
2019-05-19T08:44:08.639Z,15.74
2019-05-19T08:46:39.258Z,15.70
2019-05-19T08:49:10.192Z,15.63
2019-05-19T08:51:40.727Z,15.61
2019-05-19T08:54:15.206Z,15.52
2019-05-19T08:56:44.027Z,15.55
2019-05-19T08:59:14.639Z,15.67
2019-05-19T09:01:45.212Z,15.72
2019-05-19T09:04:16.083Z,15.92
2019-05-19T09:06:46.813Z,16.13
2019-05-19T09:09:17.374Z,16.21
2019-05-19T09:11:49.434Z,16.21
2019-05-19T09:14:19.977Z,16.14
2019-05-19T09:16:50.505Z,16.12
2019-05-19T09:19:21.248Z,16.29
2019-05-19T09:21:51.879Z,16.34
2019-05-19T09:24:30.626Z,16.62
2019-05-19T09:26:54.764Z,16.53
2019-05-19T09:29:25.550Z,16.69
2019-05-19T09:31:56.202Z,16.66
2019-05-19T09:34:26.756Z,16.62
2019-05-19T09:36:58.732Z,16.67
2019-05-19T09:39:30.944Z,17.07
2019-05-19T09:42:03.010Z,17.24
2019-05-19T09:44:33.696Z,17.47
2019-05-19T09:47:04.488Z,17.53
2019-05-19T09:49:35.901Z,17.38
2019-05-19T09:52:07.098Z,17.26
2019-05-19T09:54:45.330Z,17.26
2019-05-19T09:57:10.032Z,17.17
2019-05-19T09:59:40.631Z,17.13
2019-05-19T10:02:11.180Z,17.34
2019-05-19T10:04:41.843Z,17.48
2019-05-19T10:07:12.692Z,17.58
2019-05-19T10:10:11.762Z,17.37
2019-05-19T10:12:42.223Z,17.35
2019-05-19T10:15:14.749Z,17.64
2019-05-19T10:17:45.344Z,17.50
2019-05-19T10:20:17.221Z,17.40
2019-05-19T10:22:47.754Z,17.56
2019-05-19T10:25:22.093Z,17.82
2019-05-19T10:27:50.845Z,17.72
2019-05-19T10:30:21.486Z,17.80
2019-05-19T10:32:52.109Z,17.98
2019-05-19T10:35:22.705Z,18.05
2019-05-19T10:37:53.446Z,18.13
2019-05-19T10:40:23.998Z,18.26
2019-05-19T10:42:54.560Z,18.25
2019-05-19T10:45:25.122Z,18.32
2019-05-19T10:47:55.835Z,18.29
2019-05-19T10:50:26.368Z,18.49
2019-05-19T10:52:56.979Z,18.77
2019-05-19T10:55:36.240Z,18.89
2019-05-19T10:57:59.826Z,18.89
2019-05-19T11:00:31.260Z,19.08
2019-05-19T11:03:01.865Z,19.02
2019-05-19T11:05:32.560Z,19.05
2019-05-19T11:08:03.086Z,19.12
2019-05-19T11:10:33.951Z,19.46
2019-05-19T11:13:04.494Z,19.71
2019-05-19T11:15:35.359Z,19.83
2019-05-19T11:18:06.581Z,20.00
2019-05-19T11:20:37.235Z,20.18
2019-05-19T11:23:07.907Z,20.43
2019-05-19T11:25:50.596Z,20.34
2019-05-19T11:28:11.396Z,20.46
2019-05-19T11:30:41.944Z,20.43
2019-05-19T11:33:12.562Z,20.53
2019-05-19T11:35:43.036Z,20.65
2019-05-19T11:38:13.570Z,20.74
2019-05-19T11:40:44.174Z,20.93
2019-05-19T11:43:14.880Z,20.91
2019-05-19T11:45:45.411Z,21.17
2019-05-19T11:48:16.000Z,21.17
2019-05-19T11:50:46.562Z,21.22
2019-05-19T11:53:17.254Z,21.38
2019-05-19T11:55:47.842Z,21.54
2019-05-19T11:58:18.345Z,21.79
2019-05-19T12:00:48.933Z,21.96
2019-05-19T12:03:19.533Z,22.12
2019-05-19T12:05:50.053Z,22.33
2019-05-19T12:08:20.775Z,22.43
2019-05-19T12:10:51.294Z,22.46
2019-05-19T12:13:21.881Z,22.68
2019-05-19T12:15:52.928Z,22.66
2019-05-19T12:18:23.750Z,22.97
2019-05-19T12:20:54.351Z,22.91
2019-05-19T12:23:25.145Z,23.76
2019-05-19T12:25:55.713Z,24.71
2019-05-19T12:28:26.285Z,26.68
2019-05-19T12:30:56.962Z,27.66
2019-05-19T12:33:27.526Z,28.60
2019-05-19T12:35:58.574Z,29.19
2019-05-19T12:38:29.129Z,29.55
2019-05-19T12:40:59.767Z,29.25
2019-05-19T12:43:30.561Z,29.39
2019-05-19T12:46:01.169Z,30.26
2019-05-19T12:48:31.878Z,31.53
2019-05-19T12:51:02.518Z,30.13
2019-05-19T12:53:33.141Z,30.05
2019-05-19T12:56:03.782Z,29.87
2019-05-19T12:58:35.211Z,29.73
2019-05-19T13:01:05.938Z,30.92
2019-05-19T13:03:36.450Z,31.16
2019-05-19T13:06:06.959Z,30.85
2019-05-19T13:08:37.745Z,31.25
2019-05-19T13:11:08.320Z,30.66
2019-05-19T13:13:38.824Z,31.05
2019-05-19T13:16:15.336Z,30.78
2019-05-19T13:18:45.870Z,29.48
2019-05-19T13:21:16.366Z,28.57
2019-05-19T13:23:46.937Z,28.06
2019-05-19T13:26:17.441Z,27.30
2019-05-19T13:28:48.014Z,27.49
2019-05-19T13:31:18.590Z,26.81
2019-05-19T13:33:49.108Z,27.80
2019-05-19T13:36:19.692Z,28.98
2019-05-19T13:38:51.152Z,29.78
2019-05-19T13:41:21.756Z,30.16
2019-05-19T13:43:52.352Z,28.51
2019-05-19T13:46:23.051Z,27.93
2019-05-19T13:48:53.654Z,27.63
2019-05-19T13:51:24.414Z,27.21
2019-05-19T13:53:55.934Z,27.06
2019-05-19T13:56:26.398Z,27.95
2019-05-19T13:58:57.010Z,26.97
2019-05-19T14:01:28.936Z,26.21
2019-05-19T14:03:59.697Z,26.18
2019-05-19T14:06:30.425Z,26.45
2019-05-19T14:09:01.384Z,26.03
2019-05-19T14:11:32.127Z,24.87
2019-05-19T14:14:03.419Z,24.17
2019-05-19T14:16:34.063Z,23.85
2019-05-19T14:19:05.112Z,23.92
2019-05-19T14:21:35.752Z,24.45
2019-05-19T14:24:06.349Z,25.81
2019-05-19T14:26:36.843Z,26.52
2019-05-19T14:29:07.315Z,26.82
2019-05-19T14:31:37.853Z,26.10
2019-05-19T14:34:08.341Z,26.16
2019-05-19T14:36:38.803Z,25.87
2019-05-19T14:39:09.416Z,25.34
2019-05-19T14:41:44.984Z,25.49
2019-05-19T14:44:15.524Z,25.22
2019-05-19T14:46:46.067Z,24.74
2019-05-19T14:49:16.715Z,24.25
2019-05-19T14:51:47.314Z,23.79
2019-05-19T14:54:17.868Z,23.18
2019-05-19T14:56:48.432Z,22.87
2019-05-19T14:59:18.975Z,22.66
2019-05-19T15:01:49.960Z,23.01
2019-05-19T15:04:20.467Z,23.05
2019-05-19T15:06:51.022Z,23.46
2019-05-19T15:09:21.551Z,23.70
2019-05-19T15:11:52.136Z,23.92
2019-05-19T15:14:22.702Z,24.54
2019-05-19T15:16:53.119Z,24.66
2019-05-19T15:19:23.685Z,24.62
2019-05-19T15:21:54.296Z,25.34
2019-05-19T15:24:25.145Z,25.41
2019-05-19T15:26:55.678Z,24.90
2019-05-19T15:29:26.472Z,23.62
2019-05-19T15:31:57.095Z,23.36
2019-05-19T15:34:28.083Z,23.76
2019-05-19T15:36:58.836Z,23.52
2019-05-19T15:39:29.534Z,23.42
2019-05-19T15:42:00.080Z,24.01
2019-05-19T15:44:30.716Z,24.24
2019-05-19T15:47:01.276Z,24.02
2019-05-19T15:49:31.797Z,24.71
2019-05-19T15:52:05.004Z,25.08
2019-05-19T15:54:34.630Z,25.39
2019-05-19T15:57:05.148Z,24.84
2019-05-19T15:59:35.730Z,24.45
2019-05-19T16:02:06.360Z,23.85
2019-05-19T16:04:36.908Z,23.51
2019-05-19T16:07:08.599Z,22.97
2019-05-19T16:09:39.202Z,22.52
2019-05-19T16:12:09.898Z,22.23
2019-05-19T16:14:40.935Z,21.66
2019-05-19T16:17:11.608Z,21.47
2019-05-19T16:19:42.488Z,21.33
2019-05-19T16:22:13.163Z,21.29
2019-05-19T16:24:43.794Z,21.84
2019-05-19T16:27:14.363Z,22.24
2019-05-19T16:29:45.103Z,22.46
2019-05-19T16:32:15.603Z,23.57
2019-05-19T16:34:46.152Z,24.06
2019-05-19T16:37:16.767Z,23.55
2019-05-19T16:39:47.272Z,23.89
2019-05-19T16:42:17.741Z,24.02
2019-05-19T16:44:48.355Z,24.22
2019-05-19T16:47:18.814Z,24.55
2019-05-19T16:49:49.334Z,24.45
2019-05-19T16:52:19.945Z,24.26
2019-05-19T16:55:09.564Z,24.12
2019-05-19T16:57:40.065Z,24.18
2019-05-19T17:00:10.785Z,24.16
2019-05-19T17:02:41.385Z,24.41
2019-05-19T17:05:12.637Z,24.13
2019-05-19T17:07:43.142Z,23.97
2019-05-19T17:10:13.950Z,23.50
2019-05-19T17:12:44.610Z,23.28
2019-05-19T17:15:15.235Z,22.91
2019-05-19T17:17:45.752Z,22.58
2019-05-19T17:20:16.486Z,22.51
2019-05-19T17:22:47.021Z,22.03
2019-05-19T17:25:18.130Z,21.64
2019-05-19T17:27:48.681Z,21.40
2019-05-19T17:30:21.506Z,21.23
2019-05-19T17:32:51.991Z,21.26
2019-05-19T17:35:22.506Z,21.10
2019-05-19T17:37:53.017Z,21.01
2019-05-19T17:40:22.666Z,20.85
2019-05-19T17:42:52.184Z,20.30
2019-05-19T17:45:21.703Z,20.12
2019-05-19T17:47:53.335Z,20.18
2019-05-19T17:50:33.501Z,19.95
2019-05-19T17:53:03.686Z,19.72
2019-05-19T17:55:35.115Z,19.65
2019-05-19T17:58:05.102Z,19.57
2019-05-19T18:00:41.011Z,19.34
2019-05-19T18:03:11.169Z,19.14
2019-05-19T18:05:40.713Z,19.16
2019-05-19T18:08:10.333Z,19.25
2019-05-19T18:10:39.873Z,19.05
2019-05-19T18:13:09.368Z,18.88
2019-05-19T18:15:38.869Z,18.76
2019-05-19T18:18:08.446Z,18.77
2019-05-19T18:20:37.990Z,18.55
2019-05-19T18:23:07.507Z,18.53
2019-05-19T18:25:37.134Z,18.35
2019-05-19T18:28:06.767Z,18.23
2019-05-19T18:30:36.331Z,18.23
2019-05-19T18:33:05.915Z,17.93
2019-05-19T18:35:35.444Z,17.71
2019-05-19T18:38:04.940Z,17.61
2019-05-19T18:40:34.552Z,17.64
2019-05-19T18:43:04.178Z,17.41
2019-05-19T18:45:34.254Z,17.30
2019-05-19T18:48:03.802Z,17.12
2019-05-19T18:50:33.320Z,17.14
2019-05-19T18:53:02.819Z,17.03
2019-05-19T18:55:32.359Z,16.86
2019-05-19T18:58:02.436Z,16.81
2019-05-19T19:00:37.464Z,16.71
2019-05-19T19:03:07.221Z,16.70
2019-05-19T19:05:36.676Z,16.49
2019-05-19T19:08:06.231Z,16.31
2019-05-19T19:10:35.779Z,16.18
2019-05-19T19:13:05.276Z,16.14
2019-05-19T19:15:35.255Z,16.14
2019-05-19T19:18:04.964Z,16.00
2019-05-19T19:20:35.149Z,15.85
2019-05-19T19:23:04.784Z,15.82
2019-05-19T19:25:34.303Z,15.72
2019-05-19T19:28:03.864Z,15.61
2019-05-19T19:30:33.392Z,15.59
2019-05-19T19:33:03.037Z,15.55
2019-05-19T19:35:39.435Z,15.46
2019-05-19T19:38:11.496Z,15.39
2019-05-19T19:40:49.267Z,15.35
2019-05-19T19:43:22.941Z,15.27
2019-05-19T19:45:53.716Z,15.23
2019-05-19T19:48:24.564Z,15.20
2019-05-19T19:50:55.200Z,15.22
2019-05-19T19:53:25.860Z,15.21
2019-05-19T19:55:56.586Z,15.16
2019-05-19T19:58:27.229Z,15.18
2019-05-19T20:00:57.907Z,15.12
2019-05-19T20:03:29.258Z,15.14
2019-05-19T20:06:00.013Z,15.11
2019-05-19T20:08:30.673Z,14.92
2019-05-19T20:11:01.355Z,14.92
2019-05-19T20:13:32.022Z,15.02
2019-05-19T20:16:02.613Z,14.98
2019-05-19T20:18:33.167Z,14.98
2019-05-19T20:21:03.729Z,14.91
2019-05-19T20:23:34.259Z,14.91
2019-05-19T20:26:04.787Z,14.92
2019-05-19T20:28:35.280Z,14.98
2019-05-19T20:31:05.801Z,14.90
2019-05-19T20:33:36.365Z,14.83
2019-05-19T20:36:06.905Z,14.88
2019-05-19T20:38:37.494Z,14.75
2019-05-19T20:41:08.048Z,14.72
2019-05-19T20:43:38.628Z,14.79
2019-05-19T20:46:09.184Z,14.69
2019-05-19T20:48:39.688Z,14.67
2019-05-19T20:51:10.215Z,14.75
2019-05-19T20:53:40.749Z,14.73
2019-05-19T20:56:11.281Z,14.54
2019-05-19T20:58:41.891Z,14.43
2019-05-19T21:01:12.378Z,14.44
2019-05-19T21:03:42.947Z,14.43
2019-05-19T21:06:13.522Z,14.32
2019-05-19T21:08:44.053Z,14.38
2019-05-19T21:11:14.607Z,14.31
2019-05-19T21:13:45.181Z,14.31
2019-05-19T21:16:15.675Z,14.28
2019-05-19T21:18:46.197Z,14.26
2019-05-19T21:21:16.787Z,14.18
2019-05-19T21:23:47.292Z,14.23
2019-05-19T21:26:17.809Z,14.27
2019-05-19T21:28:48.437Z,14.25
2019-05-19T21:31:18.979Z,14.13
2019-05-19T21:33:49.551Z,14.16
2019-05-19T21:36:20.120Z,14.13
2019-05-19T21:38:50.663Z,14.16
2019-05-19T21:41:21.157Z,14.12
2019-05-19T21:43:54.820Z,14.19
2019-05-19T21:46:25.402Z,14.27
2019-05-19T21:48:55.992Z,14.28
2019-05-19T21:51:26.506Z,14.21
2019-05-19T21:53:57.075Z,14.14
2019-05-19T21:56:27.599Z,14.10
2019-05-19T21:58:58.049Z,14.09
2019-05-19T22:01:28.601Z,13.89
2019-05-19T22:03:59.162Z,13.94
2019-05-19T22:06:31.345Z,14.00
2019-05-19T22:09:01.809Z,13.82
2019-05-19T22:11:32.346Z,13.77
2019-05-19T22:14:02.978Z,13.54
2019-05-19T22:16:33.456Z,13.62
2019-05-19T22:19:03.949Z,13.53
2019-05-19T22:21:34.480Z,13.57
2019-05-19T22:24:05.013Z,13.60
2019-05-19T22:26:35.517Z,13.48
2019-05-19T22:29:06.050Z,13.50
2019-05-19T22:31:37.314Z,13.45
2019-05-19T22:34:07.956Z,13.34
2019-05-19T22:36:38.454Z,13.42
2019-05-19T22:39:09.118Z,13.39
2019-05-19T22:41:39.608Z,13.37
2019-05-19T22:44:10.105Z,13.45
2019-05-19T22:46:40.595Z,13.49
2019-05-19T22:49:11.087Z,13.45
2019-05-19T22:51:41.630Z,13.51
2019-05-19T22:54:12.119Z,13.48
2019-05-19T22:56:42.663Z,13.55
2019-05-19T22:59:19.770Z,13.51
2019-05-19T23:01:51.972Z,13.46
2019-05-19T23:04:17.657Z,13.41
2019-05-19T23:06:48.231Z,13.47
2019-05-19T23:09:18.727Z,13.48
2019-05-19T23:11:49.259Z,13.50
2019-05-19T23:14:19.779Z,13.53
2019-05-19T23:16:50.306Z,13.43
2019-05-19T23:19:20.786Z,13.47
2019-05-19T23:21:51.302Z,13.47
2019-05-19T23:24:21.814Z,13.43
2019-05-19T23:26:52.329Z,13.48
2019-05-19T23:29:22.824Z,13.58
2019-05-19T23:32:06.331Z,13.51
2019-05-19T23:34:25.601Z,13.52
2019-05-19T23:36:56.242Z,13.42
2019-05-19T23:39:26.785Z,13.40
2019-05-19T23:41:57.301Z,13.34
2019-05-19T23:44:27.774Z,13.41
2019-05-19T23:46:58.387Z,13.37
2019-05-19T23:49:28.899Z,13.32
2019-05-19T23:51:59.422Z,13.25
2019-05-19T23:54:29.918Z,13.31
2019-05-19T23:57:00.448Z,13.21
2019-05-19T23:59:30.996Z,13.25
